createdAt,value
2022-12-14T00:01:27.881Z,13.40
2022-12-14T00:03:55.314Z,11.73
2022-12-14T00:06:24.066Z,11.97
2022-12-14T00:08:51.854Z,12.37
2022-12-14T00:11:25.403Z,11.57
2022-12-14T00:13:54.008Z,11.17
2022-12-14T00:16:21.371Z,11.83
2022-12-14T00:18:52.968Z,10.67
2022-12-14T00:21:20.439Z,12.03
2022-12-14T00:23:48.192Z,10.67
2022-12-14T00:26:25.466Z,11.27
2022-12-14T00:28:54.057Z,10.87
2022-12-14T00:31:21.459Z,10.73
2022-12-14T00:33:48.611Z,11.03
2022-12-14T00:36:15.389Z,10.33
2022-12-14T00:38:42.198Z,10.47
2022-12-14T00:41:09.511Z,9.80
2022-12-14T00:43:36.351Z,10.03
2022-12-14T00:46:03.290Z,9.77
2022-12-14T00:48:30.546Z,9.63
2022-12-14T00:50:57.985Z,10.10
2022-12-14T00:53:24.711Z,9.57
2022-12-14T00:55:51.995Z,9.43
2022-12-14T00:58:21.155Z,10.07
2022-12-14T01:00:48.654Z,10.50
2022-12-14T01:03:15.928Z,10.07
2022-12-14T01:05:42.556Z,9.90
2022-12-14T01:08:16.182Z,9.53
2022-12-14T01:10:42.971Z,9.83
2022-12-14T01:13:11.140Z,9.23
2022-12-14T01:15:37.780Z,10.00
2022-12-14T01:18:04.836Z,9.23
2022-12-14T01:20:31.496Z,10.23
2022-12-14T01:22:58.362Z,10.17
2022-12-14T01:25:25.200Z,9.30
2022-12-14T01:27:51.802Z,9.70
2022-12-14T01:30:19.641Z,9.50
2022-12-14T01:32:47.215Z,8.77
2022-12-14T01:35:14.006Z,8.67
2022-12-14T01:37:40.573Z,9.33
2022-12-14T01:40:10.529Z,8.70
2022-12-14T01:42:37.368Z,8.70
2022-12-14T01:45:05.081Z,8.63
2022-12-14T01:47:40.677Z,8.93
2022-12-14T01:50:33.302Z,8.50
2022-12-14T01:53:03.550Z,7.60
2022-12-14T01:55:36.744Z,8.87
2022-12-14T01:58:09.635Z,7.30
2022-12-14T02:00:36.696Z,7.73
2022-12-14T02:03:32.028Z,7.37
2022-12-14T02:06:09.467Z,7.27
2022-12-14T02:08:37.093Z,6.97
2022-12-14T02:11:03.698Z,8.30
2022-12-14T02:13:36.671Z,7.23
2022-12-14T02:16:03.636Z,7.37
2022-12-14T02:18:32.471Z,7.83
2022-12-14T02:21:08.423Z,7.70
2022-12-14T02:23:43.885Z,8.03
2022-12-14T02:26:13.370Z,7.23
2022-12-14T02:29:03.235Z,7.50
2022-12-14T02:31:54.283Z,8.07
2022-12-14T02:34:26.868Z,7.93
2022-12-14T02:37:00.159Z,7.90
2022-12-14T02:39:52.782Z,7.97
2022-12-14T02:42:26.198Z,8.10
2022-12-14T02:44:58.982Z,8.70
2022-12-14T02:47:38.702Z,8.20
2022-12-14T02:50:16.923Z,7.37
2022-12-14T02:53:03.471Z,8.10
2022-12-14T02:55:39.886Z,6.77
2022-12-14T02:58:12.050Z,7.70
2022-12-14T03:00:39.074Z,7.97
2022-12-14T03:03:06.073Z,7.13
2022-12-14T03:05:33.273Z,7.23
2022-12-14T03:08:09.069Z,7.93
2022-12-14T03:10:38.268Z,8.33
2022-12-14T03:13:22.383Z,8.27
2022-12-14T03:16:03.590Z,8.73
2022-12-14T03:18:34.904Z,7.83
2022-12-14T03:21:02.503Z,7.47
2022-12-14T03:23:32.815Z,6.97
2022-12-14T03:26:08.643Z,6.63
2022-12-14T03:28:48.564Z,8.00
2022-12-14T03:31:30.836Z,6.80
2022-12-14T03:33:59.316Z,6.40
2022-12-14T03:36:27.781Z,6.97
2022-12-14T03:38:57.806Z,7.20
2022-12-14T03:41:42.985Z,7.57
2022-12-14T03:44:24.300Z,7.53
2022-12-14T03:47:23.483Z,6.43
2022-12-14T03:50:00.698Z,7.30
2022-12-14T03:52:37.846Z,7.20
2022-12-14T03:55:29.289Z,6.30
2022-12-14T03:58:23.125Z,7.10
2022-12-14T04:00:49.724Z,6.53
2022-12-14T04:03:51.828Z,6.70
2022-12-14T04:06:26.183Z,5.93
2022-12-14T04:08:56.144Z,6.30
2022-12-14T04:11:42.700Z,6.33
2022-12-14T04:14:37.271Z,6.67
2022-12-14T04:17:27.955Z,5.90
2022-12-14T04:20:00.874Z,6.40
2022-12-14T04:22:30.994Z,5.93
2022-12-14T04:25:20.213Z,6.23
2022-12-14T04:28:04.322Z,5.57
2022-12-14T04:30:33.661Z,6.37
2022-12-14T04:33:22.894Z,6.30
2022-12-14T04:35:49.836Z,6.23
2022-12-14T04:38:20.656Z,6.47
2022-12-14T04:40:53.823Z,6.37
2022-12-14T04:43:22.156Z,5.93
2022-12-14T04:46:10.873Z,6.20
2022-12-14T04:48:42.876Z,5.13
2022-12-14T04:51:23.343Z,5.83
2022-12-14T04:53:56.238Z,6.03
2022-12-14T04:56:31.817Z,5.90
2022-12-14T04:58:58.720Z,6.40
2022-12-14T05:01:39.022Z,6.30
2022-12-14T05:04:29.904Z,6.37
2022-12-14T05:06:56.404Z,5.60
2022-12-14T05:10:14.305Z,6.23
2022-12-14T05:12:47.597Z,5.63
2022-12-14T05:15:18.453Z,5.77
2022-12-14T05:17:45.224Z,6.33
2022-12-14T05:20:20.424Z,6.40
2022-12-14T05:22:46.997Z,6.43
2022-12-14T05:25:13.966Z,7.10
2022-12-14T05:27:40.542Z,6.47
2022-12-14T05:30:07.755Z,6.30
2022-12-14T05:32:34.501Z,5.87
2022-12-14T05:35:02.133Z,6.00
2022-12-14T05:37:28.586Z,6.63
2022-12-14T05:39:55.457Z,7.33
2022-12-14T05:42:21.923Z,6.57
2022-12-14T05:44:48.692Z,6.37
2022-12-14T05:47:15.440Z,7.63
2022-12-14T05:49:42.096Z,6.67
2022-12-14T05:52:08.696Z,6.60
2022-12-14T05:54:35.146Z,7.00
2022-12-14T05:57:01.942Z,5.33
2022-12-14T05:59:28.664Z,8.33
2022-12-14T06:01:55.812Z,7.03
2022-12-14T06:04:22.506Z,6.47
2022-12-14T06:06:50.215Z,7.60
2022-12-14T06:09:17.747Z,7.07
2022-12-14T06:11:45.433Z,7.27
2022-12-14T06:14:12.780Z,7.13
2022-12-14T06:16:46.832Z,6.90
2022-12-14T06:19:14.485Z,7.40
2022-12-14T06:21:42.800Z,7.43
2022-12-14T06:24:11.499Z,7.07
2022-12-14T06:26:41.009Z,7.07
2022-12-14T06:29:10.100Z,7.93
2022-12-14T06:31:38.239Z,6.97
2022-12-14T06:34:04.841Z,7.60
2022-12-14T06:36:37.461Z,7.03
2022-12-14T06:39:10.711Z,7.17
2022-12-14T06:41:37.644Z,7.63
2022-12-14T06:44:10.543Z,6.93
2022-12-14T06:46:37.608Z,8.00
2022-12-14T06:49:05.813Z,7.13
2022-12-14T06:51:33.129Z,7.03
2022-12-14T06:53:59.848Z,7.70
2022-12-14T06:56:27.795Z,8.27
2022-12-14T06:58:55.472Z,7.77
2022-12-14T07:01:24.025Z,7.47
2022-12-14T07:03:55.909Z,7.77
2022-12-14T07:06:27.255Z,9.00
2022-12-14T07:08:55.934Z,9.37
2022-12-14T07:11:22.957Z,8.63
2022-12-14T07:13:49.569Z,8.30
2022-12-14T07:16:18.688Z,7.70
2022-12-14T07:18:45.513Z,7.63
2022-12-14T07:21:14.063Z,8.27
2022-12-14T07:23:42.461Z,8.33
2022-12-14T07:26:12.053Z,8.33
2022-12-14T07:28:38.771Z,8.67
2022-12-14T07:31:07.938Z,8.43
2022-12-14T07:33:35.063Z,8.40
2022-12-14T07:36:06.733Z,8.07
2022-12-14T07:38:34.623Z,8.17
2022-12-14T07:41:15.451Z,7.37
2022-12-14T07:43:45.080Z,8.73
2022-12-14T07:46:19.360Z,7.10
2022-12-14T07:48:51.196Z,8.70
2022-12-14T07:51:20.007Z,7.33
2022-12-14T07:53:47.050Z,8.37
2022-12-14T07:56:16.058Z,8.67
2022-12-14T08:01:34.609Z,9.83
2022-12-14T08:04:08.154Z,9.67
2022-12-14T08:06:35.607Z,9.73
2022-12-14T08:09:03.198Z,8.57
2022-12-14T08:11:29.758Z,8.10
2022-12-14T08:13:57.999Z,7.93
2022-12-14T08:16:25.480Z,8.97
2022-12-14T08:18:56.331Z,7.90
2022-12-14T08:21:23.481Z,7.47
2022-12-14T08:23:50.979Z,8.10
2022-12-14T08:26:18.085Z,8.00
2022-12-14T08:28:45.416Z,7.60
2022-12-14T08:31:17.053Z,8.00
2022-12-14T08:33:44.661Z,8.10
2022-12-14T08:36:21.478Z,8.30
2022-12-14T08:38:59.153Z,7.97
2022-12-14T08:41:26.773Z,8.33
2022-12-14T08:43:55.416Z,8.23
2022-12-14T08:46:22.575Z,8.77
2022-12-14T08:48:52.479Z,9.10
2022-12-14T08:51:19.408Z,8.20
2022-12-14T08:53:48.859Z,8.13
2022-12-14T08:56:17.907Z,8.33
2022-12-14T08:58:44.950Z,8.37
2022-12-14T09:01:29.965Z,8.27
2022-12-14T09:04:02.278Z,8.53
2022-12-14T09:06:28.877Z,8.20
2022-12-14T09:08:55.805Z,8.53
2022-12-14T09:11:22.845Z,9.30
2022-12-14T09:13:53.989Z,8.03
2022-12-14T09:16:22.258Z,8.93
2022-12-14T09:18:49.548Z,8.90
2022-12-14T09:21:16.451Z,9.50
2022-12-14T09:23:43.181Z,8.63
2022-12-14T09:26:19.724Z,9.37
2022-12-14T09:28:50.509Z,8.80
2022-12-14T09:31:19.617Z,8.53
2022-12-14T09:33:46.238Z,8.70
2022-12-14T09:36:16.085Z,8.70
2022-12-14T09:38:50.602Z,9.37
2022-12-14T09:41:24.039Z,9.10
2022-12-14T09:44:11.744Z,10.03
2022-12-14T09:47:13.874Z,10.13
2022-12-14T09:49:47.446Z,9.27
2022-12-14T09:52:18.116Z,8.70
2022-12-14T09:54:45.882Z,8.93
2022-12-14T09:57:34.466Z,9.53
2022-12-14T10:00:01.058Z,10.23
2022-12-14T10:02:33.964Z,9.83
2022-12-14T10:05:29.749Z,9.53
2022-12-14T10:08:15.569Z,8.50
2022-12-14T10:11:18.979Z,9.40
2022-12-14T10:14:03.918Z,9.37
2022-12-14T10:16:51.843Z,9.03
2022-12-14T10:19:30.026Z,8.87
2022-12-14T10:22:15.417Z,10.00
2022-12-14T10:24:46.421Z,8.97
2022-12-14T10:27:27.124Z,9.00
2022-12-14T10:30:07.335Z,9.87
2022-12-14T10:32:37.816Z,9.60
2022-12-14T10:35:13.892Z,10.33
2022-12-14T10:37:44.321Z,10.27
2022-12-14T10:40:15.759Z,9.87
2022-12-14T10:43:22.978Z,9.67
2022-12-14T10:45:56.556Z,10.33
2022-12-14T10:48:39.988Z,9.73
2022-12-14T10:51:49.027Z,9.70
2022-12-14T10:54:28.693Z,10.40
2022-12-14T10:56:55.764Z,9.80
2022-12-14T10:59:22.386Z,10.40
2022-12-14T11:01:55.098Z,10.03
2022-12-14T11:04:33.001Z,9.97
2022-12-14T11:07:10.735Z,9.73
2022-12-14T11:09:38.473Z,10.30
2022-12-14T11:12:14.553Z,9.10
2022-12-14T11:14:59.175Z,9.70
2022-12-14T11:17:41.209Z,9.73
2022-12-14T11:20:17.182Z,10.03
2022-12-14T11:22:59.159Z,10.77
2022-12-14T11:25:28.543Z,9.77
2022-12-14T11:27:55.351Z,9.47
2022-12-14T11:30:21.973Z,10.67
2022-12-14T11:32:48.988Z,10.83
2022-12-14T11:35:17.495Z,11.37
2022-12-14T11:37:44.428Z,10.60
2022-12-14T11:40:20.282Z,10.33
2022-12-14T11:42:49.302Z,11.03
2022-12-14T11:45:36.512Z,12.73
2022-12-14T11:48:30.042Z,11.67
2022-12-14T11:51:13.671Z,10.90
2022-12-14T11:53:41.346Z,9.77
2022-12-14T11:56:13.108Z,10.17
2022-12-14T11:58:48.234Z,10.30
2022-12-14T12:01:16.846Z,10.30
2022-12-14T12:03:51.401Z,10.27
2022-12-14T12:06:29.462Z,10.03
2022-12-14T12:09:00.448Z,9.60
2022-12-14T12:11:30.156Z,10.67
2022-12-14T12:14:23.170Z,10.00
2022-12-14T12:16:49.864Z,8.70
2022-12-14T12:19:22.008Z,9.53
2022-12-14T12:21:48.543Z,9.10
2022-12-14T12:24:27.561Z,9.13
2022-12-14T12:26:59.416Z,10.20
2022-12-14T12:29:52.103Z,8.73
2022-12-14T12:32:25.706Z,9.20
2022-12-14T12:34:52.220Z,10.20
2022-12-14T12:37:26.618Z,9.80
2022-12-14T12:39:57.675Z,10.30
2022-12-14T12:42:46.448Z,8.17
2022-12-14T12:45:16.931Z,8.87
2022-12-14T12:47:59.670Z,8.30
2022-12-14T12:50:37.032Z,9.03
2022-12-14T12:53:06.893Z,8.17
2022-12-14T12:55:38.490Z,8.73
2022-12-14T12:58:09.829Z,8.90
2022-12-14T13:00:38.462Z,10.40
2022-12-14T13:03:19.021Z,9.73
2022-12-14T13:05:48.209Z,9.77
2022-12-14T13:08:23.618Z,9.53
2022-12-14T13:13:43.637Z,9.80
2022-12-14T13:16:27.390Z,10.13
2022-12-14T13:19:13.363Z,9.60
2022-12-14T13:21:49.660Z,9.73
2022-12-14T13:24:19.339Z,11.40
2022-12-14T13:27:29.506Z,10.40
2022-12-14T13:30:34.984Z,10.60
2022-12-14T13:33:33.948Z,9.63
2022-12-14T13:36:21.554Z,9.83
2022-12-14T13:38:55.915Z,9.47
2022-12-14T13:41:32.658Z,9.33
2022-12-14T13:44:13.353Z,8.43
2022-12-14T13:46:40.085Z,7.97
2022-12-14T13:49:15.284Z,9.90
2022-12-14T13:51:46.782Z,8.40
2022-12-14T13:54:30.029Z,7.70
2022-12-14T13:57:11.600Z,8.90
2022-12-14T13:59:48.827Z,8.50
2022-12-14T14:02:27.833Z,8.47
2022-12-14T14:05:16.480Z,8.13
2022-12-14T14:08:02.230Z,8.53
2022-12-14T14:10:32.638Z,7.73
2022-12-14T14:13:00.360Z,8.43
2022-12-14T14:15:34.387Z,7.73
2022-12-14T14:18:36.488Z,8.57
2022-12-14T14:21:21.270Z,8.20
2022-12-14T14:24:01.081Z,8.93
2022-12-14T14:26:30.039Z,10.17
2022-12-14T14:29:14.517Z,10.23
2022-12-14T14:31:54.603Z,11.03
2022-12-14T14:34:46.599Z,9.93
2022-12-14T14:37:22.126Z,10.57
2022-12-14T14:40:02.327Z,10.67
2022-12-14T14:42:41.334Z,10.33
2022-12-14T14:45:09.315Z,11.03
2022-12-14T14:47:38.397Z,10.00
2022-12-14T14:50:08.896Z,10.53
2022-12-14T14:52:39.019Z,11.13
2022-12-14T14:55:52.697Z,11.13
2022-12-14T14:58:22.743Z,11.67
2022-12-14T15:00:55.831Z,12.03
2022-12-14T15:03:27.242Z,11.50
2022-12-14T15:05:54.141Z,10.93
2022-12-14T15:08:43.169Z,12.00
2022-12-14T15:11:21.966Z,12.93
2022-12-14T15:13:56.946Z,11.97
2022-12-14T15:16:40.698Z,12.10
2022-12-14T15:19:33.667Z,13.67
2022-12-14T15:22:03.683Z,11.50
2022-12-14T15:24:34.248Z,12.87
2022-12-14T15:27:08.813Z,11.00
2022-12-14T15:29:35.508Z,13.47
2022-12-14T15:32:04.260Z,13.13
2022-12-14T15:34:31.089Z,11.93
2022-12-14T15:36:57.995Z,12.47
2022-12-14T15:39:40.158Z,12.63
2022-12-14T15:42:17.154Z,10.97
2022-12-14T15:44:54.519Z,13.37
2022-12-14T15:47:29.172Z,12.43
2022-12-14T15:50:00.533Z,12.20
2022-12-14T15:52:30.302Z,12.67
2022-12-14T15:54:57.494Z,12.17
2022-12-14T15:57:24.395Z,12.30
2022-12-14T15:59:53.229Z,11.80
2022-12-14T16:02:31.700Z,12.10
2022-12-14T16:05:00.791Z,11.67
2022-12-14T16:07:36.070Z,12.23
2022-12-14T16:10:04.755Z,12.33
2022-12-14T16:12:45.500Z,12.47
2022-12-14T16:15:27.015Z,12.40
2022-12-14T16:18:01.506Z,12.17
2022-12-14T16:20:31.921Z,11.97
2022-12-14T16:22:59.312Z,12.40
2022-12-14T16:25:25.955Z,12.50
2022-12-14T16:27:52.984Z,12.27
2022-12-14T16:30:23.735Z,12.73
2022-12-14T16:32:53.150Z,13.60
2022-12-14T16:35:25.554Z,12.30
2022-12-14T16:37:54.429Z,12.57
2022-12-14T16:40:30.709Z,13.17
2022-12-14T16:42:57.358Z,12.23
2022-12-14T16:45:37.045Z,11.73
2022-12-14T16:48:09.250Z,12.20
2022-12-14T16:53:25.446Z,13.43
2022-12-14T16:56:06.332Z,13.33
2022-12-14T16:58:34.210Z,12.63
2022-12-14T17:01:03.146Z,12.30
2022-12-14T17:03:30.820Z,13.20
2022-12-14T17:06:03.329Z,13.07
2022-12-14T17:08:31.055Z,14.00
2022-12-14T17:10:58.133Z,13.60
2022-12-14T17:13:24.901Z,14.63
2022-12-14T17:16:01.405Z,14.93
2022-12-14T17:18:32.685Z,14.53
2022-12-14T17:20:59.897Z,14.30
2022-12-14T17:23:26.628Z,14.43
2022-12-14T17:25:53.434Z,13.43
2022-12-14T17:28:31.215Z,14.13
2022-12-14T17:30:59.561Z,17.77
2022-12-14T17:33:28.010Z,15.77
2022-12-14T17:35:55.636Z,16.60
2022-12-14T17:38:23.092Z,15.93
2022-12-14T17:40:51.038Z,15.53
2022-12-14T17:43:23.705Z,16.67
2022-12-14T17:45:50.331Z,17.17
2022-12-14T17:48:17.953Z,16.40
2022-12-14T17:50:47.567Z,15.40
2022-12-14T17:53:16.409Z,16.37
2022-12-14T17:55:43.247Z,16.33
2022-12-14T17:58:11.294Z,15.27
2022-12-14T18:00:56.621Z,16.50
2022-12-14T18:03:23.473Z,16.17
2022-12-14T18:05:51.057Z,15.87
2022-12-14T18:08:21.392Z,17.83
2022-12-14T18:10:51.578Z,15.73
2022-12-14T18:13:18.412Z,16.37
2022-12-14T18:15:49.695Z,15.40
2022-12-14T18:18:21.725Z,17.90
2022-12-14T18:20:54.310Z,16.27
2022-12-14T18:23:21.424Z,18.27
2022-12-14T18:25:51.228Z,17.97
2022-12-14T18:28:19.603Z,18.80
2022-12-14T18:30:49.967Z,18.07
2022-12-14T18:33:22.178Z,17.43
2022-12-14T18:35:49.567Z,18.50
2022-12-14T18:38:16.856Z,18.87
2022-12-14T18:40:49.379Z,17.80
2022-12-14T18:43:19.823Z,17.67
2022-12-14T18:45:46.587Z,18.00
2022-12-14T18:48:13.386Z,19.17
2022-12-14T18:50:43.141Z,19.43
2022-12-14T18:53:14.564Z,17.97
2022-12-14T18:55:42.019Z,18.63
2022-12-14T18:58:15.373Z,19.23
2022-12-14T19:00:42.169Z,19.20
2022-12-14T19:03:09.131Z,19.93
2022-12-14T19:05:35.981Z,20.60
2022-12-14T19:08:02.774Z,19.87
2022-12-14T19:10:32.130Z,19.03
2022-12-14T19:12:59.274Z,19.20
2022-12-14T19:15:32.116Z,19.43
2022-12-14T19:17:59.007Z,19.53
2022-12-14T19:20:26.452Z,19.50
2022-12-14T19:22:53.511Z,20.03
2022-12-14T19:25:21.878Z,18.37
2022-12-14T19:30:36.535Z,20.70
2022-12-14T19:33:03.477Z,17.43
2022-12-14T19:35:31.735Z,19.23
2022-12-14T19:37:58.452Z,18.43
2022-12-14T19:40:26.248Z,19.37
2022-12-14T19:42:52.878Z,18.93
2022-12-14T19:45:19.638Z,19.27
2022-12-14T19:47:46.445Z,19.33
2022-12-14T19:50:15.241Z,17.70
2022-12-14T19:52:42.518Z,21.90
2022-12-14T19:55:09.983Z,21.13
2022-12-14T19:57:37.871Z,19.60
2022-12-14T20:00:09.349Z,19.53
2022-12-14T20:02:36.313Z,18.43
2022-12-14T20:05:03.672Z,19.37
2022-12-14T20:07:30.566Z,19.03
2022-12-14T20:09:57.196Z,19.30
2022-12-14T20:12:23.829Z,18.60
2022-12-14T20:14:50.475Z,18.10
2022-12-14T20:17:17.295Z,20.37
2022-12-14T20:19:44.159Z,18.27
2022-12-14T20:22:10.839Z,18.90
2022-12-14T20:24:38.403Z,19.40
2022-12-14T20:27:05.180Z,19.10
2022-12-14T20:29:32.004Z,18.57
2022-12-14T20:31:58.645Z,19.23
2022-12-14T20:34:25.467Z,18.37
2022-12-14T20:36:52.002Z,17.90
2022-12-14T20:39:18.720Z,17.87
2022-12-14T20:41:45.285Z,17.67
2022-12-14T20:44:13.902Z,16.53
2022-12-14T20:46:43.379Z,16.90
2022-12-14T20:49:13.234Z,17.57
2022-12-14T20:51:40.561Z,17.60
2022-12-14T20:54:10.374Z,17.60
2022-12-14T20:56:37.469Z,17.03
2022-12-14T20:59:04.882Z,16.47
2022-12-14T21:01:32.122Z,16.93
2022-12-14T21:04:01.452Z,17.37
2022-12-14T21:06:28.478Z,16.80
2022-12-14T21:09:01.653Z,16.20
2022-12-14T21:11:47.983Z,16.30
2022-12-14T21:14:15.218Z,16.37
2022-12-14T21:16:42.807Z,15.57
2022-12-14T21:19:12.199Z,16.00
2022-12-14T21:21:39.902Z,42.97
2022-12-14T21:24:12.800Z,32.23
2022-12-14T21:26:44.810Z,16.37
2022-12-14T21:29:15.886Z,16.80
2022-12-14T21:31:44.144Z,15.97
2022-12-14T21:34:18.787Z,16.50
2022-12-14T21:36:45.978Z,16.57
2022-12-14T21:39:13.689Z,16.40
2022-12-14T21:41:58.887Z,15.43
2022-12-14T21:44:26.810Z,14.83
2022-12-14T21:46:53.482Z,14.60
2022-12-14T21:49:20.118Z,16.43
2022-12-14T21:51:46.613Z,15.83
2022-12-14T21:54:16.638Z,16.73
2022-12-14T21:57:02.224Z,14.73
2022-12-14T21:59:34.582Z,15.80
2022-12-14T22:02:03.375Z,14.93
2022-12-14T22:04:39.560Z,14.73
2022-12-14T22:07:07.225Z,14.53
2022-12-14T22:09:34.070Z,15.60
2022-12-14T22:12:00.845Z,13.70
2022-12-14T22:14:27.571Z,14.77
2022-12-14T22:16:54.372Z,14.50
2022-12-14T22:19:22.886Z,14.83
2022-12-14T22:21:50.797Z,16.40
2022-12-14T22:24:18.040Z,15.47
2022-12-14T22:26:45.056Z,14.77
2022-12-14T22:29:12.800Z,16.77
2022-12-14T22:31:39.431Z,16.23
2022-12-14T22:34:07.091Z,15.07
2022-12-14T22:36:33.693Z,14.80
2022-12-14T22:39:00.193Z,15.03
2022-12-14T22:41:27.842Z,16.07
2022-12-14T22:43:56.685Z,16.33
2022-12-14T22:46:24.807Z,16.13
2022-12-14T22:48:51.620Z,15.13
2022-12-14T22:51:19.063Z,15.43
2022-12-14T22:53:49.489Z,14.87
2022-12-14T22:56:24.832Z,14.73
2022-12-14T22:59:16.119Z,14.77
2022-12-14T23:01:42.992Z,14.77
2022-12-14T23:04:16.644Z,14.60
2022-12-14T23:06:43.587Z,14.10
2022-12-14T23:09:28.640Z,14.47
2022-12-14T23:12:17.103Z,14.80
2022-12-14T23:15:06.696Z,14.33
2022-12-14T23:17:51.615Z,14.83
2022-12-14T23:20:36.946Z,14.53
2022-12-14T23:23:29.232Z,13.77
2022-12-14T23:26:14.704Z,13.90
2022-12-14T23:29:00.198Z,13.23
2022-12-14T23:31:45.025Z,14.90
2022-12-14T23:34:30.025Z,15.00
2022-12-14T23:37:19.867Z,15.07
2022-12-14T23:40:06.334Z,14.60
2022-12-14T23:42:51.426Z,15.20
2022-12-14T23:45:36.451Z,14.47
2022-12-14T23:48:21.493Z,13.80
2022-12-14T23:51:06.795Z,14.77
2022-12-14T23:53:51.723Z,14.37
2022-12-14T23:56:36.671Z,13.07
2022-12-14T23:59:26.340Z,13.23
